createdAt,value
2023-05-14T00:00:26.973Z,17.48
2023-05-14T00:02:53.654Z,17.46
2023-05-14T00:05:20.187Z,17.43
2023-05-14T00:07:46.520Z,17.39
2023-05-14T00:10:12.883Z,17.34
2023-05-14T00:12:39.204Z,17.29
2023-05-14T00:15:06.216Z,17.25
2023-05-14T00:17:32.719Z,17.19
2023-05-14T00:19:59.456Z,17.11
2023-05-14T00:22:25.785Z,17.03
2023-05-14T00:24:52.121Z,16.95
2023-05-14T00:27:18.485Z,16.88
2023-05-14T00:29:45.739Z,16.82
2023-05-14T00:32:12.099Z,16.78
2023-05-14T00:34:38.516Z,16.75
2023-05-14T00:37:05.072Z,16.74
2023-05-14T00:39:31.436Z,16.73
2023-05-14T00:41:57.922Z,16.73
2023-05-14T00:44:24.253Z,16.72
2023-05-14T00:46:50.822Z,16.72
2023-05-14T00:49:17.970Z,16.70
2023-05-14T00:51:46.925Z,16.68
2023-05-14T00:54:17.379Z,16.66
2023-05-14T00:56:46.311Z,16.64
2023-05-14T00:59:13.736Z,16.60
2023-05-14T01:01:40.359Z,16.56
2023-05-14T01:04:07.687Z,16.55
2023-05-14T01:06:55.442Z,16.51
2023-05-14T01:09:27.031Z,16.46
2023-05-14T01:12:19.810Z,16.43
2023-05-14T01:14:56.800Z,16.38
2023-05-14T01:17:28.430Z,16.33
2023-05-14T01:19:56.484Z,16.28
2023-05-14T01:22:22.789Z,16.21
2023-05-14T01:24:49.168Z,16.17
2023-05-14T01:27:56.543Z,16.14
2023-05-14T01:30:23.215Z,16.12
2023-05-14T01:32:53.667Z,16.08
2023-05-14T01:35:25.204Z,16.02
2023-05-14T01:37:53.410Z,15.97
2023-05-14T01:40:19.914Z,15.94
2023-05-14T01:42:46.948Z,15.92
2023-05-14T01:45:13.277Z,15.88
2023-05-14T01:47:39.662Z,15.84
2023-05-14T01:50:06.613Z,15.79
2023-05-14T01:52:32.941Z,15.75
2023-05-14T01:54:59.954Z,15.70
2023-05-14T01:57:26.389Z,15.67
2023-05-14T01:59:52.711Z,15.63
2023-05-14T02:02:19.115Z,15.58
2023-05-14T02:04:45.568Z,15.54
2023-05-14T02:07:11.920Z,15.52
2023-05-14T02:09:38.512Z,15.49
2023-05-14T02:12:05.201Z,15.46
2023-05-14T02:14:31.615Z,15.44
2023-05-14T02:16:57.976Z,15.41
2023-05-14T02:19:24.454Z,15.37
2023-05-14T02:21:50.856Z,15.36
2023-05-14T02:24:17.202Z,15.34
2023-05-14T02:26:43.533Z,15.30
2023-05-14T02:29:09.916Z,15.28
2023-05-14T02:31:36.315Z,15.22
2023-05-14T02:34:03.904Z,15.18
2023-05-14T02:36:30.739Z,15.14
2023-05-14T02:38:59.129Z,15.14
2023-05-14T02:41:25.441Z,15.12
2023-05-14T02:43:52.740Z,15.12
2023-05-14T02:46:19.213Z,15.12
2023-05-14T02:48:45.792Z,15.12
2023-05-14T02:51:12.357Z,15.12
2023-05-14T02:53:38.696Z,15.12
2023-05-14T02:56:05.167Z,15.13
2023-05-14T02:58:32.644Z,15.14
2023-05-14T03:00:59.002Z,15.14
2023-05-14T03:03:25.747Z,15.13
2023-05-14T03:05:52.609Z,15.13
2023-05-14T03:08:18.940Z,15.12
2023-05-14T03:10:45.890Z,15.11
2023-05-14T03:13:12.386Z,15.09
2023-05-14T03:15:38.758Z,15.07
2023-05-14T03:18:05.225Z,15.05
2023-05-14T03:20:31.575Z,15.04
2023-05-14T03:22:58.104Z,15.00
2023-05-14T03:25:24.461Z,14.97
2023-05-14T03:27:50.907Z,14.95
2023-05-14T03:30:17.445Z,14.92
2023-05-14T03:32:44.520Z,14.89
2023-05-14T03:35:10.927Z,14.88
2023-05-14T03:37:37.321Z,14.86
2023-05-14T03:40:04.140Z,14.84
2023-05-14T03:42:30.484Z,14.83
2023-05-14T03:44:56.828Z,14.82
2023-05-14T03:47:23.250Z,14.79
2023-05-14T03:49:50.001Z,14.78
2023-05-14T03:52:16.467Z,14.76
2023-05-14T03:54:42.828Z,14.73
2023-05-14T03:57:09.205Z,14.72
2023-05-14T03:59:35.587Z,14.72
2023-05-14T04:02:02.138Z,14.72
2023-05-14T04:04:28.552Z,14.72
2023-05-14T04:06:54.958Z,14.73
2023-05-14T04:09:21.430Z,14.76
2023-05-14T04:11:47.744Z,14.76
2023-05-14T04:14:14.115Z,14.79
2023-05-14T04:16:40.613Z,14.80
2023-05-14T04:19:07.245Z,14.81
2023-05-14T04:21:33.648Z,14.83
2023-05-14T04:24:00.106Z,14.84
2023-05-14T04:26:26.634Z,14.87
2023-05-14T04:28:53.036Z,14.89
2023-05-14T04:31:19.561Z,14.93
2023-05-14T04:33:45.993Z,14.96
2023-05-14T04:36:12.385Z,14.99
2023-05-14T04:38:38.701Z,15.02
2023-05-14T04:41:06.024Z,15.05
2023-05-14T04:43:32.381Z,15.09
2023-05-14T04:45:58.719Z,15.11
2023-05-14T04:48:25.096Z,15.13
2023-05-14T04:50:52.046Z,15.14
2023-05-14T04:53:18.375Z,15.15
2023-05-14T04:55:44.724Z,15.15
2023-05-14T04:58:11.103Z,15.13
2023-05-14T05:00:37.492Z,15.13
2023-05-14T05:03:04.266Z,15.10
2023-05-14T05:05:30.720Z,15.09
2023-05-14T05:07:57.037Z,15.07
2023-05-14T05:10:24.557Z,15.07
2023-05-14T05:12:51.082Z,15.04
2023-05-14T05:15:17.467Z,15.04
2023-05-14T05:17:43.964Z,15.02
2023-05-14T05:20:10.825Z,15.01
2023-05-14T05:22:37.316Z,15.01
2023-05-14T05:25:08.056Z,15.01
2023-05-14T05:27:34.734Z,15.01
2023-05-14T05:30:02.113Z,15.04
2023-05-14T05:32:28.636Z,15.06
2023-05-14T05:34:54.985Z,15.09
2023-05-14T05:37:21.342Z,15.13
2023-05-14T05:39:48.290Z,15.18
2023-05-14T05:42:14.755Z,15.22
2023-05-14T05:44:41.404Z,15.28
2023-05-14T05:47:07.728Z,15.33
2023-05-14T05:49:34.141Z,15.41
2023-05-14T05:52:00.579Z,15.48
2023-05-14T05:54:27.135Z,15.55
2023-05-14T05:56:53.498Z,15.64
2023-05-14T05:59:19.815Z,15.71
2023-05-14T06:01:46.141Z,15.80
2023-05-14T06:04:12.492Z,15.88
2023-05-14T06:06:38.839Z,15.95
2023-05-14T06:09:06.776Z,16.03
2023-05-14T06:11:33.139Z,16.13
2023-05-14T06:13:59.497Z,16.20
2023-05-14T06:16:26.293Z,16.30
2023-05-14T06:18:53.161Z,16.40
2023-05-14T06:21:19.715Z,16.51
2023-05-14T06:23:46.505Z,16.61
2023-05-14T06:26:13.056Z,16.72
2023-05-14T06:28:39.441Z,16.84
2023-05-14T06:31:05.804Z,16.96
2023-05-14T06:33:32.285Z,17.09
2023-05-14T06:35:59.568Z,17.24
2023-05-14T06:38:25.924Z,17.36
2023-05-14T06:40:53.161Z,17.52
2023-05-14T06:43:19.509Z,17.66
2023-05-14T06:45:48.881Z,17.82
2023-05-14T06:48:15.787Z,17.96
2023-05-14T06:50:42.156Z,18.11
2023-05-14T06:53:08.460Z,18.26
2023-05-14T06:55:34.949Z,18.41
2023-05-14T06:58:01.575Z,18.55
2023-05-14T07:00:28.471Z,18.70
2023-05-14T07:02:54.843Z,18.84
2023-05-14T07:05:21.357Z,18.99
2023-05-14T07:07:47.753Z,19.13
2023-05-14T07:10:14.113Z,19.28
2023-05-14T07:12:40.483Z,19.41
2023-05-14T07:15:07.737Z,19.56
2023-05-14T07:17:34.158Z,19.68
2023-05-14T07:20:00.597Z,19.83
2023-05-14T07:22:27.053Z,19.95
2023-05-14T07:24:53.430Z,20.07
2023-05-14T07:27:19.808Z,20.20
2023-05-14T07:29:46.152Z,20.29
2023-05-14T07:32:15.307Z,20.39
2023-05-14T07:34:42.195Z,20.49
2023-05-14T07:37:08.854Z,20.54
2023-05-14T07:39:35.189Z,20.63
2023-05-14T07:42:01.772Z,20.68
2023-05-14T07:44:28.156Z,20.75
2023-05-14T07:46:54.569Z,20.82
2023-05-14T07:49:20.992Z,20.89
2023-05-14T07:51:47.478Z,20.94
2023-05-14T07:54:13.948Z,21.02
2023-05-14T07:56:40.351Z,21.09
2023-05-14T07:59:07.253Z,21.16
2023-05-14T08:01:33.684Z,21.23
2023-05-14T08:04:00.304Z,21.31
2023-05-14T08:06:27.582Z,21.38
2023-05-14T08:08:54.112Z,21.45
2023-05-14T08:11:21.396Z,21.51
2023-05-14T08:13:47.897Z,21.58
2023-05-14T08:16:14.281Z,21.65
2023-05-14T08:18:41.039Z,21.70
2023-05-14T08:21:07.391Z,21.77
2023-05-14T08:23:33.810Z,21.83
2023-05-14T08:26:00.335Z,21.90
2023-05-14T08:28:26.792Z,21.98
2023-05-14T08:30:53.285Z,22.04
2023-05-14T08:33:19.672Z,22.10
2023-05-14T08:35:46.000Z,22.16
2023-05-14T08:38:12.369Z,22.23
2023-05-14T08:40:40.075Z,22.31
2023-05-14T08:43:07.916Z,22.38
2023-05-14T08:45:35.287Z,22.44
2023-05-14T08:48:08.871Z,22.54
2023-05-14T08:50:36.086Z,22.62
2023-05-14T08:53:02.492Z,22.69
2023-05-14T08:55:29.896Z,22.76
2023-05-14T08:57:56.576Z,22.82
2023-05-14T09:00:23.593Z,22.88
2023-05-14T09:02:51.042Z,22.95
2023-05-14T09:05:18.960Z,23.02
2023-05-14T09:07:45.399Z,23.08
2023-05-14T09:10:13.072Z,23.16
2023-05-14T09:12:39.451Z,23.23
2023-05-14T09:15:06.614Z,23.30
2023-05-14T09:17:33.641Z,23.37
2023-05-14T09:20:00.287Z,23.39
2023-05-14T09:22:30.059Z,23.43
2023-05-14T09:25:11.838Z,23.47
2023-05-14T09:27:38.773Z,23.51
2023-05-14T09:30:10.092Z,23.57
2023-05-14T09:32:38.470Z,23.65
2023-05-14T09:35:17.157Z,23.76
2023-05-14T09:37:46.256Z,23.84
2023-05-14T09:40:13.794Z,23.92
2023-05-14T09:42:40.829Z,24.01
2023-05-14T09:45:08.777Z,24.07
2023-05-14T09:47:36.281Z,24.18
2023-05-14T09:50:03.910Z,24.27
2023-05-14T09:52:30.915Z,24.36
2023-05-14T09:54:57.420Z,24.47
2023-05-14T09:57:24.092Z,24.58
2023-05-14T09:59:50.580Z,24.68
2023-05-14T10:02:26.292Z,24.77
2023-05-14T10:04:54.081Z,24.88
2023-05-14T10:07:29.054Z,24.96
2023-05-14T10:10:01.686Z,25.05
2023-05-14T10:12:32.383Z,25.10
2023-05-14T10:15:03.617Z,25.16
2023-05-14T10:17:33.785Z,25.20
2023-05-14T10:20:02.570Z,25.21
2023-05-14T10:22:33.597Z,25.23
2023-05-14T10:25:00.627Z,25.22
2023-05-14T10:27:27.326Z,25.18
2023-05-14T10:29:55.773Z,25.16
2023-05-14T10:32:25.065Z,25.12
2023-05-14T10:34:53.339Z,25.12
2023-05-14T10:37:26.315Z,25.11
2023-05-14T10:40:02.073Z,25.08
2023-05-14T10:42:40.502Z,25.07
2023-05-14T10:45:08.752Z,25.00
2023-05-14T10:47:36.959Z,24.94
2023-05-14T10:50:06.142Z,24.88
2023-05-14T10:52:34.965Z,24.84
2023-05-14T10:55:11.441Z,24.82
2023-05-14T10:57:40.230Z,24.80
2023-05-14T11:00:09.158Z,24.77
2023-05-14T11:05:18.193Z,24.76
2023-05-14T11:10:30.070Z,24.81
2023-05-14T11:12:59.153Z,24.87
2023-05-14T11:15:28.241Z,24.98
2023-05-14T11:17:54.714Z,25.08
2023-05-14T11:20:21.418Z,25.18
2023-05-14T11:22:49.234Z,25.25
2023-05-14T11:25:15.842Z,25.25
2023-05-14T11:27:46.916Z,25.28
2023-05-14T11:30:14.330Z,25.31
2023-05-14T11:32:41.287Z,25.40
2023-05-14T11:35:08.292Z,25.51
2023-05-14T11:37:34.672Z,25.63
2023-05-14T11:40:01.708Z,25.74
2023-05-14T11:42:28.159Z,25.82
2023-05-14T11:44:54.489Z,25.89
2023-05-14T11:47:22.075Z,25.93
2023-05-14T11:49:49.546Z,25.94
2023-05-14T11:52:19.174Z,25.92
2023-05-14T11:54:45.928Z,25.91
2023-05-14T11:57:22.371Z,25.92
2023-05-14T11:59:49.782Z,25.94
2023-05-14T12:02:19.523Z,26.00
2023-05-14T12:04:51.841Z,26.11
2023-05-14T12:07:18.296Z,26.18
2023-05-14T12:09:49.694Z,26.25
2023-05-14T12:12:23.017Z,26.27
2023-05-14T12:14:50.412Z,26.28
2023-05-14T12:17:18.213Z,26.30
2023-05-14T12:19:47.360Z,26.33
2023-05-14T12:22:15.664Z,26.36
2023-05-14T12:24:43.907Z,26.37
2023-05-14T12:27:10.723Z,26.39
2023-05-14T12:29:41.352Z,26.39
2023-05-14T12:32:09.466Z,26.38
2023-05-14T12:34:37.638Z,26.35
2023-05-14T12:37:04.973Z,26.32
2023-05-14T12:39:33.670Z,26.27
2023-05-14T12:42:00.418Z,26.22
2023-05-14T12:44:26.857Z,26.21
2023-05-14T12:46:53.327Z,26.21
2023-05-14T12:49:20.281Z,26.23
2023-05-14T12:51:47.093Z,26.26
2023-05-14T12:54:15.747Z,26.34
2023-05-14T12:56:42.461Z,26.42
2023-05-14T12:59:09.463Z,26.50
2023-05-14T13:01:36.676Z,26.56
2023-05-14T13:04:03.277Z,26.59
2023-05-14T13:06:29.678Z,26.63
2023-05-14T13:08:56.659Z,26.67
2023-05-14T13:11:22.992Z,26.74
2023-05-14T13:13:49.479Z,26.82
2023-05-14T13:16:16.850Z,26.92
2023-05-14T13:18:43.400Z,26.99
2023-05-14T13:21:09.810Z,27.05
2023-05-14T13:23:36.142Z,27.10
2023-05-14T13:26:02.467Z,27.17
2023-05-14T13:28:28.842Z,27.24
2023-05-14T13:31:04.675Z,27.32
2023-05-14T13:33:30.993Z,27.38
2023-05-14T13:35:57.237Z,27.40
2023-05-14T13:38:23.502Z,27.35
2023-05-14T13:40:49.865Z,27.19
2023-05-14T13:43:16.843Z,27.02
2023-05-14T13:45:43.212Z,26.85
2023-05-14T13:48:09.611Z,26.70
2023-05-14T13:50:35.942Z,26.58
2023-05-14T13:53:02.288Z,26.47
2023-05-14T13:55:28.627Z,26.38
2023-05-14T13:57:55.222Z,26.31
2023-05-14T14:00:21.839Z,26.26
2023-05-14T14:02:48.210Z,26.27
2023-05-14T14:05:14.857Z,26.33
2023-05-14T14:07:41.721Z,26.44
2023-05-14T14:10:08.883Z,26.57
2023-05-14T14:12:35.381Z,26.74
2023-05-14T14:15:02.798Z,26.91
2023-05-14T14:17:29.182Z,27.06
2023-05-14T14:19:55.554Z,27.18
2023-05-14T14:22:22.474Z,27.25
2023-05-14T14:24:49.500Z,27.27
2023-05-14T14:27:15.889Z,27.23
2023-05-14T14:29:42.327Z,27.20
2023-05-14T14:32:08.813Z,27.17
2023-05-14T14:34:35.385Z,27.12
2023-05-14T14:37:01.699Z,27.10
2023-05-14T14:39:28.197Z,27.07
2023-05-14T14:41:54.944Z,27.02
2023-05-14T14:44:21.289Z,26.96
2023-05-14T14:46:47.593Z,26.90
2023-05-14T14:49:13.923Z,26.81
2023-05-14T14:51:40.739Z,26.76
2023-05-14T14:54:07.154Z,26.71
2023-05-14T14:56:33.775Z,26.68
2023-05-14T14:59:01.369Z,26.66
2023-05-14T15:01:27.939Z,26.66
2023-05-14T15:03:54.355Z,26.62
2023-05-14T15:06:20.754Z,26.58
2023-05-14T15:08:47.192Z,26.54
2023-05-14T15:11:14.337Z,26.44
2023-05-14T15:13:41.821Z,26.36
2023-05-14T15:16:08.286Z,26.26
2023-05-14T15:18:34.714Z,26.17
2023-05-14T15:21:01.088Z,26.13
2023-05-14T15:23:27.431Z,26.11
2023-05-14T15:25:53.913Z,26.12
2023-05-14T15:28:20.440Z,26.15
2023-05-14T15:30:49.997Z,26.21
2023-05-14T15:33:19.651Z,26.27
2023-05-14T15:35:46.101Z,26.34
2023-05-14T15:38:12.449Z,26.41
2023-05-14T15:40:38.838Z,26.46
2023-05-14T15:43:05.318Z,26.49
2023-05-14T15:45:31.714Z,26.54
2023-05-14T15:47:58.161Z,26.59
2023-05-14T15:50:25.805Z,26.65
2023-05-14T15:52:52.422Z,26.71
2023-05-14T15:55:19.040Z,26.80
2023-05-14T15:57:45.447Z,26.85
2023-05-14T16:00:12.302Z,26.92
2023-05-14T16:02:39.728Z,27.00
2023-05-14T16:05:08.146Z,27.04
2023-05-14T16:07:34.574Z,27.09
2023-05-14T16:10:01.044Z,27.14
2023-05-14T16:12:27.404Z,27.19
2023-05-14T16:14:53.891Z,27.25
2023-05-14T16:17:20.405Z,27.29
2023-05-14T16:19:46.754Z,27.34
2023-05-14T16:22:13.075Z,27.39
2023-05-14T16:24:39.453Z,27.42
2023-05-14T16:27:06.134Z,27.46
2023-05-14T16:29:32.528Z,27.46
2023-05-14T16:31:59.124Z,27.46
2023-05-14T16:34:25.518Z,27.43
2023-05-14T16:36:51.872Z,27.41
2023-05-14T16:39:18.214Z,27.39
2023-05-14T16:41:44.568Z,27.36
2023-05-14T16:44:10.904Z,27.35
2023-05-14T16:46:37.404Z,27.34
2023-05-14T16:49:03.835Z,27.31
2023-05-14T16:51:30.207Z,27.29
2023-05-14T16:53:56.568Z,27.30
2023-05-14T16:56:23.051Z,27.33
2023-05-14T16:58:49.522Z,27.35
2023-05-14T17:01:16.002Z,27.39
2023-05-14T17:03:43.357Z,27.43
2023-05-14T17:06:10.056Z,27.47
2023-05-14T17:08:36.554Z,27.48
2023-05-14T17:11:05.557Z,27.49
2023-05-14T17:13:32.985Z,27.49
2023-05-14T17:16:00.583Z,27.48
2023-05-14T17:18:27.153Z,27.45
2023-05-14T17:20:53.552Z,27.42
2023-05-14T17:23:20.357Z,27.38
2023-05-14T17:25:46.780Z,27.35
2023-05-14T17:28:13.115Z,27.31
2023-05-14T17:30:39.561Z,27.27
2023-05-14T17:33:06.188Z,27.23
2023-05-14T17:35:35.985Z,27.18
2023-05-14T17:38:03.141Z,27.14
2023-05-14T17:40:29.638Z,27.09
2023-05-14T17:42:55.958Z,27.01
2023-05-14T17:45:22.435Z,26.95
2023-05-14T17:47:49.670Z,26.84
2023-05-14T17:50:16.305Z,26.76
2023-05-14T17:52:44.109Z,26.66
2023-05-14T17:55:11.112Z,26.57
2023-05-14T17:57:37.636Z,26.48
2023-05-14T18:00:07.449Z,26.38
2023-05-14T18:02:33.893Z,26.28
2023-05-14T18:05:00.376Z,26.19
2023-05-14T18:07:27.386Z,26.09
2023-05-14T18:09:53.726Z,26.01
2023-05-14T18:12:20.241Z,25.93
2023-05-14T18:14:46.574Z,25.83
2023-05-14T18:17:12.989Z,25.76
2023-05-14T18:19:40.930Z,25.69
2023-05-14T18:22:07.341Z,25.63
2023-05-14T18:24:33.725Z,25.53
2023-05-14T18:27:00.447Z,25.46
2023-05-14T18:29:26.845Z,25.39
2023-05-14T18:31:53.293Z,25.31
2023-05-14T18:34:19.670Z,25.24
2023-05-14T18:36:50.000Z,25.17
2023-05-14T18:39:16.308Z,25.08
2023-05-14T18:41:42.668Z,24.95
2023-05-14T18:44:08.995Z,24.81
2023-05-14T18:46:35.570Z,24.67
2023-05-14T18:49:02.021Z,24.48
2023-05-14T18:51:29.432Z,24.32
2023-05-14T18:53:56.901Z,24.15
2023-05-14T18:56:23.258Z,23.99
2023-05-14T18:58:49.608Z,23.85
2023-05-14T19:01:15.990Z,23.72
2023-05-14T19:03:42.481Z,23.57
2023-05-14T19:06:09.100Z,23.43
2023-05-14T19:08:35.853Z,23.31
2023-05-14T19:11:02.790Z,23.18
2023-05-14T19:13:30.105Z,23.06
2023-05-14T19:15:56.581Z,22.95
2023-05-14T19:18:22.987Z,22.85
2023-05-14T19:20:49.380Z,22.73
2023-05-14T19:23:15.797Z,22.65
2023-05-14T19:25:42.162Z,22.56
2023-05-14T19:28:08.578Z,22.50
2023-05-14T19:30:34.967Z,22.45
2023-05-14T19:33:01.376Z,22.40
2023-05-14T19:35:27.804Z,22.36
2023-05-14T19:37:54.317Z,22.32
2023-05-14T19:40:20.636Z,22.28
2023-05-14T19:42:46.968Z,22.25
2023-05-14T19:45:13.716Z,22.21
2023-05-14T19:47:40.239Z,22.17
2023-05-14T19:50:08.310Z,22.14
2023-05-14T19:52:34.677Z,22.10
2023-05-14T19:55:00.998Z,22.06
2023-05-14T19:57:27.361Z,22.03
2023-05-14T20:00:12.889Z,22.01
2023-05-14T20:02:40.725Z,21.97
2023-05-14T20:05:11.457Z,21.92
2023-05-14T20:07:40.167Z,21.89
2023-05-14T20:10:07.429Z,21.82
2023-05-14T20:12:33.780Z,21.76
2023-05-14T20:15:00.186Z,21.69
2023-05-14T20:17:26.719Z,21.64
2023-05-14T20:19:53.077Z,21.55
2023-05-14T20:22:19.412Z,21.49
2023-05-14T20:24:45.866Z,21.42
2023-05-14T20:27:12.366Z,21.36
2023-05-14T20:29:38.691Z,21.31
2023-05-14T20:32:05.689Z,21.26
2023-05-14T20:34:32.025Z,21.21
2023-05-14T20:36:58.467Z,21.16
2023-05-14T20:39:24.828Z,21.11
2023-05-14T20:41:51.205Z,21.07
2023-05-14T20:44:18.426Z,21.01
2023-05-14T20:46:46.960Z,20.97
2023-05-14T20:49:13.426Z,20.92
2023-05-14T20:51:39.754Z,20.85
2023-05-14T20:54:06.135Z,20.79
2023-05-14T20:56:32.628Z,20.75
2023-05-14T20:58:58.962Z,20.70
2023-05-14T21:01:25.540Z,20.65
2023-05-14T21:03:52.152Z,20.58
2023-05-14T21:06:18.650Z,20.51
2023-05-14T21:08:45.027Z,20.44
2023-05-14T21:11:11.445Z,20.38
2023-05-14T21:13:37.799Z,20.30
2023-05-14T21:16:04.361Z,20.24
2023-05-14T21:18:32.746Z,20.17
2023-05-14T21:20:59.226Z,20.10
2023-05-14T21:23:25.698Z,20.05
2023-05-14T21:25:54.644Z,20.00
2023-05-14T21:28:22.111Z,19.95
2023-05-14T21:30:52.845Z,19.93
2023-05-14T21:33:19.320Z,19.87
2023-05-14T21:35:45.671Z,19.84
2023-05-14T21:38:12.295Z,19.80
2023-05-14T21:40:38.657Z,19.76
2023-05-14T21:43:05.012Z,19.72
2023-05-14T21:45:31.504Z,19.68
2023-05-14T21:47:58.014Z,19.65
2023-05-14T21:50:24.462Z,19.60
2023-05-14T21:52:51.195Z,19.55
2023-05-14T21:55:17.644Z,19.48
2023-05-14T21:57:44.011Z,19.42
2023-05-14T22:00:13.000Z,19.36
2023-05-14T22:02:39.611Z,19.32
2023-05-14T22:05:06.371Z,19.28
2023-05-14T22:07:32.853Z,19.26
2023-05-14T22:09:59.190Z,19.23
2023-05-14T22:12:26.174Z,19.21
2023-05-14T22:14:52.711Z,19.20
2023-05-14T22:17:19.057Z,19.17
2023-05-14T22:19:45.499Z,19.16
2023-05-14T22:22:11.808Z,19.13
2023-05-14T22:24:38.153Z,19.11
2023-05-14T22:27:04.650Z,19.08
2023-05-14T22:29:31.011Z,19.05
2023-05-14T22:31:57.550Z,19.02
2023-05-14T22:34:24.144Z,18.98
2023-05-14T22:36:50.515Z,18.94
2023-05-14T22:39:16.909Z,18.91
2023-05-14T22:41:43.243Z,18.85
2023-05-14T22:44:09.622Z,18.79
2023-05-14T22:46:36.061Z,18.74
2023-05-14T22:49:03.062Z,18.69
2023-05-14T22:51:29.469Z,18.63
2023-05-14T22:53:55.874Z,18.59
2023-05-14T22:56:22.286Z,18.54
2023-05-14T22:58:48.665Z,18.50
2023-05-14T23:01:15.155Z,18.46
2023-05-14T23:03:41.589Z,18.42
2023-05-14T23:06:07.999Z,18.39
2023-05-14T23:08:34.329Z,18.35
2023-05-14T23:11:00.726Z,18.32
2023-05-14T23:13:27.038Z,18.29
2023-05-14T23:15:53.383Z,18.26
2023-05-14T23:18:19.827Z,18.24
2023-05-14T23:20:46.262Z,18.21
2023-05-14T23:23:12.623Z,18.18
2023-05-14T23:25:39.196Z,18.15
2023-05-14T23:28:05.939Z,18.12
2023-05-14T23:30:32.618Z,18.09
2023-05-14T23:32:59.031Z,18.06
2023-05-14T23:35:25.765Z,18.00
2023-05-14T23:37:52.532Z,17.96
2023-05-14T23:40:18.961Z,17.92
2023-05-14T23:42:45.731Z,17.88
2023-05-14T23:45:13.420Z,17.83
2023-05-14T23:47:40.983Z,17.79
2023-05-14T23:50:07.794Z,17.73
2023-05-14T23:52:34.300Z,17.68
2023-05-14T23:55:00.630Z,17.63
2023-05-14T23:57:27.203Z,17.58
2023-05-14T23:59:53.532Z,17.51
